createdAt,value
2023-05-06T00:00:49.849Z,5.47
2023-05-06T00:15:53.975Z,5.22
2023-05-06T00:20:45.687Z,5.03
2023-05-06T00:25:37.412Z,3.60
2023-05-06T00:30:39.101Z,4.25
2023-05-06T00:35:35.992Z,6.97
2023-05-06T00:45:35.184Z,5.18
2023-05-06T00:50:30.215Z,6.45
2023-05-06T00:55:22.298Z,5.93
2023-05-06T01:00:14.375Z,6.45
2023-05-06T01:05:07.592Z,4.45
2023-05-06T01:10:27.893Z,4.18
2023-05-06T01:20:56.464Z,3.97
2023-05-06T01:25:48.356Z,5.25
2023-05-06T01:31:11.738Z,4.13
2023-05-06T01:42:10.422Z,7.03
2023-05-06T01:47:02.762Z,3.65
2023-05-06T01:51:55.700Z,5.60
2023-05-06T01:56:47.396Z,4.45
2023-05-06T02:01:39.099Z,4.72
2023-05-06T02:06:30.828Z,3.72
2023-05-06T02:11:23.756Z,3.05
2023-05-06T02:16:15.853Z,5.22
2023-05-06T02:21:11.999Z,4.40
2023-05-06T02:26:04.314Z,4.00
2023-05-06T02:30:59.372Z,6.13
2023-05-06T02:35:51.809Z,4.80
2023-05-06T02:40:43.495Z,5.47
2023-05-06T02:45:35.251Z,4.95
2023-05-06T02:50:27.067Z,4.90
2023-05-06T02:55:19.405Z,4.43
2023-05-06T03:00:12.704Z,8.75
2023-05-06T03:05:04.910Z,6.47
2023-05-06T03:09:56.688Z,5.78
2023-05-06T03:14:48.379Z,4.75
2023-05-06T03:19:40.089Z,5.55
2023-05-06T03:24:31.813Z,7.75
2023-05-06T03:29:23.571Z,7.57
2023-05-06T03:34:15.257Z,7.30
2023-05-06T03:39:07.182Z,7.10
2023-05-06T03:43:58.848Z,8.38
2023-05-06T03:48:54.212Z,5.70
2023-05-06T03:53:46.527Z,8.82
2023-05-06T03:58:38.203Z,5.75
2023-05-06T04:03:30.229Z,7.47
2023-05-06T04:08:22.016Z,6.72
2023-05-06T04:13:13.790Z,8.40
2023-05-06T04:18:08.305Z,11.10
2023-05-06T04:23:00.300Z,11.00
2023-05-06T04:27:52.066Z,10.35
2023-05-06T04:32:43.731Z,9.75
2023-05-06T04:37:35.426Z,8.27
2023-05-06T04:42:27.316Z,7.57
2023-05-06T04:47:19.173Z,9.18
2023-05-06T04:52:18.663Z,8.93
2023-05-06T04:57:10.399Z,11.10
2023-05-06T05:02:02.108Z,10.33
2023-05-06T05:06:53.850Z,11.93
2023-05-06T05:11:45.531Z,11.48
2023-05-06T05:16:37.489Z,12.80
2023-05-06T05:21:29.319Z,12.68
2023-05-06T05:26:20.990Z,15.02
2023-05-06T05:31:12.765Z,11.55
2023-05-06T05:36:05.233Z,13.05
2023-05-06T05:40:57.031Z,13.55
2023-05-06T05:45:48.706Z,12.40
2023-05-06T05:50:40.384Z,12.45
2023-05-06T05:55:32.123Z,11.70
2023-05-06T06:56:42.969Z,9.27
2023-05-06T07:01:34.989Z,10.65
2023-05-06T07:06:27.216Z,9.38
2023-05-06T07:16:25.252Z,7.72
2023-05-06T07:21:18.619Z,8.88
2023-05-06T07:26:11.253Z,8.45
2023-05-06T07:31:03.108Z,6.13
2023-05-06T07:35:55.227Z,7.60
2023-05-06T07:40:47.716Z,10.20
2023-05-06T07:45:40.540Z,4.95
2023-05-06T07:50:34.489Z,4.88
2023-05-06T08:41:52.749Z,5.10
2023-05-06T08:51:54.624Z,5.00
2023-05-06T08:56:53.561Z,4.68
2023-05-06T09:01:45.310Z,6.50
2023-05-06T09:06:37.019Z,5.47
2023-05-06T09:11:37.998Z,7.78
2023-05-06T09:26:46.456Z,4.00
2023-05-06T09:31:46.265Z,5.57
2023-05-06T09:41:44.749Z,4.25
2023-05-06T09:51:47.715Z,5.13
2023-05-06T09:56:39.896Z,3.85
2023-05-06T10:27:31.154Z,3.25
2023-05-06T10:32:29.222Z,3.22
2023-05-06T11:03:32.269Z,3.05
2023-05-06T11:13:43.670Z,2.15
2023-05-06T11:39:21.472Z,4.03
2023-05-06T11:55:05.773Z,2.42
2023-05-06T11:59:59.465Z,1.90
2023-05-06T12:05:00.213Z,1.60
2023-05-06T15:26:14.655Z,1.17
2023-05-06T15:41:19.565Z,2.22
2023-05-06T15:56:39.365Z,1.75
2023-05-06T16:16:57.254Z,3.03
2023-05-06T16:26:57.188Z,2.67
2023-05-06T17:58:46.405Z,1.77
2023-05-06T18:08:49.135Z,4.47
2023-05-06T18:13:42.106Z,4.22
2023-05-06T18:18:34.483Z,2.83
2023-05-06T18:28:36.502Z,5.47
2023-05-06T19:04:15.062Z,3.85
2023-05-06T19:09:09.335Z,8.30
2023-05-06T20:41:17.508Z,7.97
2023-05-06T20:46:11.201Z,7.38
2023-05-06T20:51:03.689Z,7.07
2023-05-06T20:55:56.831Z,5.43
2023-05-06T21:11:06.060Z,4.97
2023-05-06T21:26:25.348Z,5.78
2023-05-06T21:46:53.576Z,3.63
2023-05-06T22:27:54.135Z,6.88
